sensor_id;sensor_type;location;lat;lon;timestamp;P1;durP1;ratioP1;P2;durP2;ratioP2
22417;SDS011;11376;50.932;4.442;2022-12-18T00:01:04;59.73;;;19.90;;
22417;SDS011;11376;50.932;4.442;2022-12-18T00:03:34;63.53;;;19.77;;
22417;SDS011;11376;50.932;4.442;2022-12-18T00:06:00;63.70;;;18.60;;
22417;SDS011;11376;50.932;4.442;2022-12-18T00:08:26;59.33;;;19.77;;
22417;SDS011;11376;50.932;4.442;2022-12-18T00:10:51;59.87;;;19.97;;
22417;SDS011;11376;50.932;4.442;2022-12-18T00:13:17;67.47;;;20.13;;
22417;SDS011;11376;50.932;4.442;2022-12-18T00:15:42;65.33;;;19.97;;
22417;SDS011;11376;50.932;4.442;2022-12-18T00:18:08;57.63;;;19.03;;
22417;SDS011;11376;50.932;4.442;2022-12-18T00:20:37;66.30;;;19.43;;
22417;SDS011;11376;50.932;4.442;2022-12-18T00:23:04;57.00;;;19.40;;
22417;SDS011;11376;50.932;4.442;2022-12-18T00:25:32;56.63;;;18.20;;
22417;SDS011;11376;50.932;4.442;2022-12-18T00:27:59;58.43;;;19.07;;
22417;SDS011;11376;50.932;4.442;2022-12-18T00:30:25;60.23;;;18.93;;
22417;SDS011;11376;50.932;4.442;2022-12-18T00:32:50;58.47;;;18.13;;
22417;SDS011;11376;50.932;4.442;2022-12-18T00:35:16;65.87;;;19.57;;
22417;SDS011;11376;50.932;4.442;2022-12-18T00:37:41;64.57;;;19.73;;
22417;SDS011;11376;50.932;4.442;2022-12-18T00:40:07;61.53;;;19.50;;
22417;SDS011;11376;50.932;4.442;2022-12-18T00:42:33;58.87;;;18.60;;
22417;SDS011;11376;50.932;4.442;2022-12-18T00:45:18;61.53;;;18.97;;
22417;SDS011;11376;50.932;4.442;2022-12-18T00:47:44;57.90;;;19.00;;
22417;SDS011;11376;50.932;4.442;2022-12-18T00:50:10;50.53;;;17.10;;
22417;SDS011;11376;50.932;4.442;2022-12-18T00:52:35;57.03;;;18.33;;
22417;SDS011;11376;50.932;4.442;2022-12-18T00:55:01;60.87;;;18.77;;
22417;SDS011;11376;50.932;4.442;2022-12-18T00:57:27;62.37;;;19.70;;
22417;SDS011;11376;50.932;4.442;2022-12-18T00:59:52;63.30;;;18.63;;
22417;SDS011;11376;50.932;4.442;2022-12-18T01:02:18;56.90;;;17.87;;
22417;SDS011;11376;50.932;4.442;2022-12-18T01:04:43;56.17;;;18.13;;
22417;SDS011;11376;50.932;4.442;2022-12-18T01:07:09;58.97;;;18.90;;
22417;SDS011;11376;50.932;4.442;2022-12-18T01:09:35;58.30;;;18.07;;
22417;SDS011;11376;50.932;4.442;2022-12-18T01:12:00;54.67;;;18.07;;
22417;SDS011;11376;50.932;4.442;2022-12-18T01:14:26;61.27;;;18.23;;
22417;SDS011;11376;50.932;4.442;2022-12-18T01:16:51;62.97;;;19.30;;
22417;SDS011;11376;50.932;4.442;2022-12-18T01:19:17;67.07;;;19.90;;
22417;SDS011;11376;50.932;4.442;2022-12-18T01:21:42;62.33;;;18.03;;
22417;SDS011;11376;50.932;4.442;2022-12-18T01:24:09;55.13;;;17.30;;
22417;SDS011;11376;50.932;4.442;2022-12-18T01:26:37;57.27;;;18.33;;
22417;SDS011;11376;50.932;4.442;2022-12-18T01:29:02;58.93;;;17.67;;
22417;SDS011;11376;50.932;4.442;2022-12-18T01:31:29;55.80;;;17.70;;
22417;SDS011;11376;50.932;4.442;2022-12-18T01:33:57;51.67;;;17.90;;
22417;SDS011;11376;50.932;4.442;2022-12-18T01:36:26;53.40;;;17.87;;
22417;SDS011;11376;50.932;4.442;2022-12-18T01:38:54;59.40;;;17.60;;
22417;SDS011;11376;50.932;4.442;2022-12-18T01:41:21;56.23;;;17.43;;
22417;SDS011;11376;50.932;4.442;2022-12-18T01:43:51;55.70;;;17.50;;
22417;SDS011;11376;50.932;4.442;2022-12-18T01:46:22;58.93;;;16.43;;
22417;SDS011;11376;50.932;4.442;2022-12-18T01:48:50;58.13;;;17.13;;
22417;SDS011;11376;50.932;4.442;2022-12-18T01:51:17;57.13;;;17.80;;
22417;SDS011;11376;50.932;4.442;2022-12-18T01:53:43;56.17;;;17.73;;
22417;SDS011;11376;50.932;4.442;2022-12-18T01:56:12;54.87;;;17.73;;
22417;SDS011;11376;50.932;4.442;2022-12-18T01:58:48;55.37;;;18.27;;
22417;SDS011;11376;50.932;4.442;2022-12-18T02:01:19;55.90;;;18.13;;
22417;SDS011;11376;50.932;4.442;2022-12-18T02:03:47;57.13;;;16.80;;
22417;SDS011;11376;50.932;4.442;2022-12-18T02:06:15;53.33;;;16.57;;
22417;SDS011;11376;50.932;4.442;2022-12-18T02:11:16;54.10;;;17.97;;
22417;SDS011;11376;50.932;4.442;2022-12-18T02:13:52;69.90;;;19.30;;
22417;SDS011;11376;50.932;4.442;2022-12-18T02:16:33;54.87;;;17.37;;
22417;SDS011;11376;50.932;4.442;2022-12-18T02:19:21;59.37;;;17.80;;
22417;SDS011;11376;50.932;4.442;2022-12-18T02:25:02;50.47;;;17.63;;
22417;SDS011;11376;50.932;4.442;2022-12-18T02:27:36;54.07;;;16.90;;
22417;SDS011;11376;50.932;4.442;2022-12-18T02:30:04;54.70;;;18.20;;
22417;SDS011;11376;50.932;4.442;2022-12-18T02:32:33;55.63;;;17.00;;
22417;SDS011;11376;50.932;4.442;2022-12-18T02:35:04;52.03;;;17.43;;
22417;SDS011;11376;50.932;4.442;2022-12-18T02:37:32;56.63;;;17.27;;
22417;SDS011;11376;50.932;4.442;2022-12-18T02:40:00;55.80;;;17.13;;
22417;SDS011;11376;50.932;4.442;2022-12-18T02:42:28;48.00;;;16.70;;
22417;SDS011;11376;50.932;4.442;2022-12-18T02:44:54;52.17;;;17.50;;
22417;SDS011;11376;50.932;4.442;2022-12-18T02:47:20;52.57;;;17.23;;
22417;SDS011;11376;50.932;4.442;2022-12-18T02:57:47;51.27;;;16.83;;
22417;SDS011;11376;50.932;4.442;2022-12-18T03:00:20;47.17;;;16.20;;
22417;SDS011;11376;50.932;4.442;2022-12-18T03:02:52;52.33;;;16.07;;
22417;SDS011;11376;50.932;4.442;2022-12-18T03:05:30;53.00;;;17.40;;
22417;SDS011;11376;50.932;4.442;2022-12-18T03:08:02;52.50;;;17.50;;
22417;SDS011;11376;50.932;4.442;2022-12-18T03:10:45;49.40;;;15.37;;
22417;SDS011;11376;50.932;4.442;2022-12-18T03:13:19;51.60;;;16.67;;
22417;SDS011;11376;50.932;4.442;2022-12-18T03:15:54;44.10;;;15.57;;
22417;SDS011;11376;50.932;4.442;2022-12-18T03:18:23;46.23;;;16.03;;
22417;SDS011;11376;50.932;4.442;2022-12-18T03:21:01;46.00;;;15.70;;
22417;SDS011;11376;50.932;4.442;2022-12-18T03:23:32;50.27;;;16.10;;
22417;SDS011;11376;50.932;4.442;2022-12-18T03:26:01;51.80;;;16.17;;
22417;SDS011;11376;50.932;4.442;2022-12-18T03:28:30;45.50;;;14.10;;
22417;SDS011;11376;50.932;4.442;2022-12-18T03:31:01;45.63;;;15.17;;
22417;SDS011;11376;50.932;4.442;2022-12-18T03:33:38;53.87;;;16.47;;
22417;SDS011;11376;50.932;4.442;2022-12-18T03:36:11;43.73;;;15.40;;
22417;SDS011;11376;50.932;4.442;2022-12-18T03:38:37;53.13;;;17.07;;
22417;SDS011;11376;50.932;4.442;2022-12-18T03:44:15;50.20;;;16.17;;
22417;SDS011;11376;50.932;4.442;2022-12-18T03:46:59;53.67;;;17.00;;
22417;SDS011;11376;50.932;4.442;2022-12-18T03:52:26;47.20;;;15.87;;
22417;SDS011;11376;50.932;4.442;2022-12-18T03:55:00;40.40;;;14.10;;
22417;SDS011;11376;50.932;4.442;2022-12-18T03:57:28;43.97;;;14.83;;
22417;SDS011;11376;50.932;4.442;2022-12-18T03:59:57;45.40;;;14.73;;
22417;SDS011;11376;50.932;4.442;2022-12-18T04:02:37;45.77;;;14.47;;
22417;SDS011;11376;50.932;4.442;2022-12-18T04:05:07;48.57;;;17.43;;
22417;SDS011;11376;50.932;4.442;2022-12-18T04:07:35;47.37;;;15.73;;
22417;SDS011;11376;50.932;4.442;2022-12-18T04:10:02;49.57;;;16.60;;
22417;SDS011;11376;50.932;4.442;2022-12-18T04:12:31;51.50;;;17.57;;
22417;SDS011;11376;50.932;4.442;2022-12-18T04:14:57;47.80;;;15.43;;
22417;SDS011;11376;50.932;4.442;2022-12-18T04:17:22;43.10;;;16.67;;
22417;SDS011;11376;50.932;4.442;2022-12-18T04:19:48;46.27;;;15.97;;
22417;SDS011;11376;50.932;4.442;2022-12-18T04:22:14;44.43;;;15.30;;
22417;SDS011;11376;50.932;4.442;2022-12-18T04:24:40;45.90;;;14.93;;
22417;SDS011;11376;50.932;4.442;2022-12-18T04:27:06;49.30;;;16.17;;
22417;SDS011;11376;50.932;4.442;2022-12-18T04:29:32;45.70;;;15.33;;
22417;SDS011;11376;50.932;4.442;2022-12-18T04:31:57;44.57;;;14.27;;
22417;SDS011;11376;50.932;4.442;2022-12-18T04:34:23;48.67;;;15.67;;
22417;SDS011;11376;50.932;4.442;2022-12-18T04:36:48;47.27;;;14.50;;
22417;SDS011;11376;50.932;4.442;2022-12-18T04:39:14;45.73;;;14.30;;
22417;SDS011;11376;50.932;4.442;2022-12-18T04:41:40;40.43;;;14.50;;
22417;SDS011;11376;50.932;4.442;2022-12-18T04:44:06;38.20;;;13.50;;
22417;SDS011;11376;50.932;4.442;2022-12-18T04:46:31;39.03;;;14.73;;
22417;SDS011;11376;50.932;4.442;2022-12-18T04:48:57;47.27;;;14.60;;
22417;SDS011;11376;50.932;4.442;2022-12-18T04:51:23;41.03;;;13.80;;
22417;SDS011;11376;50.932;4.442;2022-12-18T04:53:48;34.57;;;14.10;;
22417;SDS011;11376;50.932;4.442;2022-12-18T04:56:14;38.10;;;13.60;;
22417;SDS011;11376;50.932;4.442;2022-12-18T04:58:41;42.07;;;13.97;;
22417;SDS011;11376;50.932;4.442;2022-12-18T05:01:08;39.90;;;13.93;;
22417;SDS011;11376;50.932;4.442;2022-12-18T05:03:35;39.30;;;13.43;;
22417;SDS011;11376;50.932;4.442;2022-12-18T05:06:02;38.80;;;13.50;;
22417;SDS011;11376;50.932;4.442;2022-12-18T05:08:29;46.20;;;14.27;;
22417;SDS011;11376;50.932;4.442;2022-12-18T05:10:58;38.47;;;13.00;;
22417;SDS011;11376;50.932;4.442;2022-12-18T05:13:25;40.27;;;12.83;;
22417;SDS011;11376;50.932;4.442;2022-12-18T05:15:51;37.67;;;13.30;;
22417;SDS011;11376;50.932;4.442;2022-12-18T05:18:17;32.97;;;12.60;;
22417;SDS011;11376;50.932;4.442;2022-12-18T05:20:43;47.03;;;14.17;;
22417;SDS011;11376;50.932;4.442;2022-12-18T05:23:08;41.03;;;14.43;;
22417;SDS011;11376;50.932;4.442;2022-12-18T05:25:34;39.43;;;13.50;;
22417;SDS011;11376;50.932;4.442;2022-12-18T05:28:00;38.63;;;13.60;;
22417;SDS011;11376;50.932;4.442;2022-12-18T05:30:25;40.27;;;14.20;;
22417;SDS011;11376;50.932;4.442;2022-12-18T05:32:51;35.40;;;14.03;;
22417;SDS011;11376;50.932;4.442;2022-12-18T05:35:16;35.60;;;12.23;;
22417;SDS011;11376;50.932;4.442;2022-12-18T05:37:42;36.37;;;13.53;;
22417;SDS011;11376;50.932;4.442;2022-12-18T05:40:08;35.93;;;12.87;;
22417;SDS011;11376;50.932;4.442;2022-12-18T05:42:34;41.90;;;14.17;;
22417;SDS011;11376;50.932;4.442;2022-12-18T05:45:00;37.13;;;12.43;;
22417;SDS011;11376;50.932;4.442;2022-12-18T05:47:26;37.80;;;12.77;;
22417;SDS011;11376;50.932;4.442;2022-12-18T05:49:52;37.03;;;12.53;;
22417;SDS011;11376;50.932;4.442;2022-12-18T05:52:18;34.97;;;13.17;;
22417;SDS011;11376;50.932;4.442;2022-12-18T05:54:43;35.37;;;12.27;;
22417;SDS011;11376;50.932;4.442;2022-12-18T05:57:09;42.73;;;14.57;;
22417;SDS011;11376;50.932;4.442;2022-12-18T05:59:35;40.47;;;13.40;;
22417;SDS011;11376;50.932;4.442;2022-12-18T06:02:00;41.83;;;14.10;;
22417;SDS011;11376;50.932;4.442;2022-12-18T06:04:27;44.07;;;15.33;;
22417;SDS011;11376;50.932;4.442;2022-12-18T06:06:53;38.93;;;13.03;;
22417;SDS011;11376;50.932;4.442;2022-12-18T06:09:19;40.07;;;14.27;;
22417;SDS011;11376;50.932;4.442;2022-12-18T06:11:45;38.60;;;13.33;;
22417;SDS011;11376;50.932;4.442;2022-12-18T06:14:10;38.80;;;13.43;;
22417;SDS011;11376;50.932;4.442;2022-12-18T06:16:36;35.43;;;12.30;;
22417;SDS011;11376;50.932;4.442;2022-12-18T06:19:02;36.50;;;13.40;;
22417;SDS011;11376;50.932;4.442;2022-12-18T06:21:29;38.47;;;13.80;;
22417;SDS011;11376;50.932;4.442;2022-12-18T06:23:55;37.83;;;12.63;;
22417;SDS011;11376;50.932;4.442;2022-12-18T06:26:21;39.67;;;12.53;;
22417;SDS011;11376;50.932;4.442;2022-12-18T06:28:47;33.07;;;12.67;;
22417;SDS011;11376;50.932;4.442;2022-12-18T06:31:13;33.27;;;12.20;;
22417;SDS011;11376;50.932;4.442;2022-12-18T06:33:38;36.80;;;11.73;;
22417;SDS011;11376;50.932;4.442;2022-12-18T06:36:05;32.00;;;12.17;;
22417;SDS011;11376;50.932;4.442;2022-12-18T06:38:35;38.20;;;12.77;;
22417;SDS011;11376;50.932;4.442;2022-12-18T06:43:35;30.47;;;11.73;;
22417;SDS011;11376;50.932;4.442;2022-12-18T06:46:01;35.30;;;11.93;;
22417;SDS011;11376;50.932;4.442;2022-12-18T06:48:28;29.90;;;10.70;;
22417;SDS011;11376;50.932;4.442;2022-12-18T06:50:53;33.80;;;12.43;;
22417;SDS011;11376;50.932;4.442;2022-12-18T06:53:19;37.10;;;12.00;;
22417;SDS011;11376;50.932;4.442;2022-12-18T06:55:45;34.33;;;12.53;;
22417;SDS011;11376;50.932;4.442;2022-12-18T06:58:10;31.50;;;12.40;;
22417;SDS011;11376;50.932;4.442;2022-12-18T07:00:36;32.80;;;12.20;;
22417;SDS011;11376;50.932;4.442;2022-12-18T07:03:01;35.20;;;11.93;;
22417;SDS011;11376;50.932;4.442;2022-12-18T07:05:27;37.77;;;13.20;;
22417;SDS011;11376;50.932;4.442;2022-12-18T07:07:53;36.93;;;13.30;;
22417;SDS011;11376;50.932;4.442;2022-12-18T07:10:18;33.13;;;12.90;;
22417;SDS011;11376;50.932;4.442;2022-12-18T07:12:44;29.80;;;11.70;;
22417;SDS011;11376;50.932;4.442;2022-12-18T07:15:09;37.50;;;14.10;;
22417;SDS011;11376;50.932;4.442;2022-12-18T07:17:35;32.17;;;13.23;;
22417;SDS011;11376;50.932;4.442;2022-12-18T07:20:01;35.10;;;12.77;;
22417;SDS011;11376;50.932;4.442;2022-12-18T07:22:26;33.83;;;12.87;;
22417;SDS011;11376;50.932;4.442;2022-12-18T07:24:52;32.50;;;12.73;;
22417;SDS011;11376;50.932;4.442;2022-12-18T07:27:18;34.23;;;12.97;;
22417;SDS011;11376;50.932;4.442;2022-12-18T07:29:43;34.37;;;12.37;;
22417;SDS011;11376;50.932;4.442;2022-12-18T07:32:09;34.53;;;12.50;;
22417;SDS011;11376;50.932;4.442;2022-12-18T07:34:34;40.60;;;12.33;;
22417;SDS011;11376;50.932;4.442;2022-12-18T07:37:00;33.47;;;11.87;;
22417;SDS011;11376;50.932;4.442;2022-12-18T07:39:26;33.73;;;12.37;;
22417;SDS011;11376;50.932;4.442;2022-12-18T07:41:51;34.73;;;12.37;;
22417;SDS011;11376;50.932;4.442;2022-12-18T07:44:36;33.23;;;11.77;;
22417;SDS011;11376;50.932;4.442;2022-12-18T07:47:02;32.03;;;11.63;;
22417;SDS011;11376;50.932;4.442;2022-12-18T07:49:27;35.57;;;12.13;;
22417;SDS011;11376;50.932;4.442;2022-12-18T07:51:56;32.47;;;12.00;;
22417;SDS011;11376;50.932;4.442;2022-12-18T07:54:23;34.00;;;12.17;;
22417;SDS011;11376;50.932;4.442;2022-12-18T07:56:49;31.87;;;12.10;;
22417;SDS011;11376;50.932;4.442;2022-12-18T07:59:15;32.30;;;12.33;;
22417;SDS011;11376;50.932;4.442;2022-12-18T08:01:41;32.00;;;11.97;;
22417;SDS011;11376;50.932;4.442;2022-12-18T08:04:06;31.53;;;11.87;;
22417;SDS011;11376;50.932;4.442;2022-12-18T08:06:32;34.47;;;12.53;;
22417;SDS011;11376;50.932;4.442;2022-12-18T08:08:58;29.93;;;11.83;;
22417;SDS011;11376;50.932;4.442;2022-12-18T08:11:24;29.07;;;10.70;;
22417;SDS011;11376;50.932;4.442;2022-12-18T08:13:51;32.87;;;10.90;;
22417;SDS011;11376;50.932;4.442;2022-12-18T08:16:17;29.10;;;9.97;;
22417;SDS011;11376;50.932;4.442;2022-12-18T08:18:43;29.07;;;11.60;;
22417;SDS011;11376;50.932;4.442;2022-12-18T08:23:38;37.97;;;12.53;;
22417;SDS011;11376;50.932;4.442;2022-12-18T08:26:04;27.30;;;10.93;;
22417;SDS011;11376;50.932;4.442;2022-12-18T08:28:30;26.63;;;10.40;;
22417;SDS011;11376;50.932;4.442;2022-12-18T08:30:56;25.87;;;10.40;;
22417;SDS011;11376;50.932;4.442;2022-12-18T08:33:21;27.20;;;9.43;;
22417;SDS011;11376;50.932;4.442;2022-12-18T08:35:47;23.67;;;9.60;;
22417;SDS011;11376;50.932;4.442;2022-12-18T08:38:12;24.27;;;9.60;;
22417;SDS011;11376;50.932;4.442;2022-12-18T08:40:38;27.23;;;10.80;;
22417;SDS011;11376;50.932;4.442;2022-12-18T08:43:04;23.63;;;9.43;;
22417;SDS011;11376;50.932;4.442;2022-12-18T08:45:48;23.67;;;9.67;;
22417;SDS011;11376;50.932;4.442;2022-12-18T08:48:13;23.93;;;9.27;;
22417;SDS011;11376;50.932;4.442;2022-12-18T08:50:40;25.63;;;10.00;;
22417;SDS011;11376;50.932;4.442;2022-12-18T08:53:05;22.67;;;9.80;;
22417;SDS011;11376;50.932;4.442;2022-12-18T08:55:31;26.13;;;10.20;;
22417;SDS011;11376;50.932;4.442;2022-12-18T08:57:57;27.87;;;11.20;;
22417;SDS011;11376;50.932;4.442;2022-12-18T09:00:22;22.63;;;10.50;;
22417;SDS011;11376;50.932;4.442;2022-12-18T09:02:48;27.07;;;10.80;;
22417;SDS011;11376;50.932;4.442;2022-12-18T09:05:13;21.97;;;9.80;;
22417;SDS011;11376;50.932;4.442;2022-12-18T09:07:39;24.10;;;9.40;;
22417;SDS011;11376;50.932;4.442;2022-12-18T09:10:05;23.80;;;9.63;;
22417;SDS011;11376;50.932;4.442;2022-12-18T09:12:31;24.80;;;9.23;;
22417;SDS011;11376;50.932;4.442;2022-12-18T09:14:56;23.73;;;9.70;;
22417;SDS011;11376;50.932;4.442;2022-12-18T09:17:22;21.90;;;9.27;;
22417;SDS011;11376;50.932;4.442;2022-12-18T09:19:48;23.20;;;9.23;;
22417;SDS011;11376;50.932;4.442;2022-12-18T09:22:14;23.17;;;10.33;;
22417;SDS011;11376;50.932;4.442;2022-12-18T09:24:39;24.60;;;11.20;;
22417;SDS011;11376;50.932;4.442;2022-12-18T09:27:06;21.87;;;10.50;;
22417;SDS011;11376;50.932;4.442;2022-12-18T09:29:32;17.67;;;8.83;;
22417;SDS011;11376;50.932;4.442;2022-12-18T09:31:57;19.17;;;8.67;;
22417;SDS011;11376;50.932;4.442;2022-12-18T09:34:23;19.53;;;9.03;;
22417;SDS011;11376;50.932;4.442;2022-12-18T09:36:49;20.17;;;9.43;;
22417;SDS011;11376;50.932;4.442;2022-12-18T09:39:15;17.77;;;8.43;;
22417;SDS011;11376;50.932;4.442;2022-12-18T09:41:48;22.07;;;9.20;;
22417;SDS011;11376;50.932;4.442;2022-12-18T09:44:24;22.50;;;10.10;;
22417;SDS011;11376;50.932;4.442;2022-12-18T09:47:10;21.33;;;9.20;;
22417;SDS011;11376;50.932;4.442;2022-12-18T09:50:01;20.97;;;9.07;;
22417;SDS011;11376;50.932;4.442;2022-12-18T09:55:03;23.73;;;9.33;;
22417;SDS011;11376;50.932;4.442;2022-12-18T09:57:37;20.87;;;9.63;;
22417;SDS011;11376;50.932;4.442;2022-12-18T10:00:18;21.53;;;9.10;;
22417;SDS011;11376;50.932;4.442;2022-12-18T10:02:46;21.40;;;9.33;;
22417;SDS011;11376;50.932;4.442;2022-12-18T10:05:16;18.50;;;8.93;;
22417;SDS011;11376;50.932;4.442;2022-12-18T10:07:52;18.00;;;8.53;;
22417;SDS011;11376;50.932;4.442;2022-12-18T10:10:53;22.60;;;10.27;;
22417;SDS011;11376;50.932;4.442;2022-12-18T10:13:33;18.67;;;9.00;;
22417;SDS011;11376;50.932;4.442;2022-12-18T10:16:15;16.33;;;8.03;;
22417;SDS011;11376;50.932;4.442;2022-12-18T10:21:38;19.00;;;6.93;;
22417;SDS011;11376;50.932;4.442;2022-12-18T10:24:33;14.97;;;7.07;;
22417;SDS011;11376;50.932;4.442;2022-12-18T10:27:25;17.63;;;7.23;;
22417;SDS011;11376;50.932;4.442;2022-12-18T10:29:52;18.13;;;6.00;;
22417;SDS011;11376;50.932;4.442;2022-12-18T10:32:20;14.07;;;6.60;;
22417;SDS011;11376;50.932;4.442;2022-12-18T10:34:52;15.50;;;6.40;;
22417;SDS011;11376;50.932;4.442;2022-12-18T10:37:24;18.30;;;6.83;;
22417;SDS011;11376;50.932;4.442;2022-12-18T10:40:11;15.40;;;7.07;;
22417;SDS011;11376;50.932;4.442;2022-12-18T10:42:38;15.33;;;6.70;;
22417;SDS011;11376;50.932;4.442;2022-12-18T10:45:16;16.17;;;7.47;;
22417;SDS011;11376;50.932;4.442;2022-12-18T10:47:45;16.77;;;7.47;;
22417;SDS011;11376;50.932;4.442;2022-12-18T10:50:18;14.50;;;6.20;;
22417;SDS011;11376;50.932;4.442;2022-12-18T10:52:59;14.93;;;7.13;;
22417;SDS011;11376;50.932;4.442;2022-12-18T10:55:38;15.30;;;7.13;;
22417;SDS011;11376;50.932;4.442;2022-12-18T10:58:25;15.77;;;7.03;;
22417;SDS011;11376;50.932;4.442;2022-12-18T11:06:07;16.70;;;7.67;;
22417;SDS011;11376;50.932;4.442;2022-12-18T11:08:39;18.20;;;7.70;;
22417;SDS011;11376;50.932;4.442;2022-12-18T11:11:22;14.40;;;6.73;;
22417;SDS011;11376;50.932;4.442;2022-12-18T11:14:00;16.77;;;7.37;;
22417;SDS011;11376;50.932;4.442;2022-12-18T11:16:26;15.77;;;7.60;;
22417;SDS011;11376;50.932;4.442;2022-12-18T11:18:55;16.17;;;7.40;;
22417;SDS011;11376;50.932;4.442;2022-12-18T11:21:40;15.40;;;7.13;;
22417;SDS011;11376;50.932;4.442;2022-12-18T11:24:13;15.83;;;6.97;;
22417;SDS011;11376;50.932;4.442;2022-12-18T11:26:59;14.70;;;7.17;;
22417;SDS011;11376;50.932;4.442;2022-12-18T11:29:37;15.50;;;7.33;;
22417;SDS011;11376;50.932;4.442;2022-12-18T11:34:59;16.40;;;7.27;;
22417;SDS011;11376;50.932;4.442;2022-12-18T11:37:35;16.73;;;7.50;;
22417;SDS011;11376;50.932;4.442;2022-12-18T11:40:06;17.53;;;7.73;;
22417;SDS011;11376;50.932;4.442;2022-12-18T11:42:40;16.73;;;8.03;;
22417;SDS011;11376;50.932;4.442;2022-12-18T11:53:22;15.27;;;7.30;;
22417;SDS011;11376;50.932;4.442;2022-12-18T11:58:45;18.07;;;8.13;;
22417;SDS011;11376;50.932;4.442;2022-12-18T12:01:44;20.50;;;8.77;;
22417;SDS011;11376;50.932;4.442;2022-12-18T12:13:37;18.60;;;8.60;;
22417;SDS011;11376;50.932;4.442;2022-12-18T12:16:14;18.77;;;8.43;;
22417;SDS011;11376;50.932;4.442;2022-12-18T12:21:41;18.83;;;8.70;;
22417;SDS011;11376;50.932;4.442;2022-12-18T12:32:45;18.10;;;8.70;;
22417;SDS011;11376;50.932;4.442;2022-12-18T12:40:54;18.87;;;9.57;;
22417;SDS011;11376;50.932;4.442;2022-12-18T12:46:00;21.33;;;9.80;;
22417;SDS011;11376;50.932;4.442;2022-12-18T12:48:33;18.40;;;9.50;;
22417;SDS011;11376;50.932;4.442;2022-12-18T12:54:02;25.80;;;10.53;;
22417;SDS011;11376;50.932;4.442;2022-12-18T12:56:39;18.93;;;9.30;;
22417;SDS011;11376;50.932;4.442;2022-12-18T13:07:12;18.87;;;8.00;;
22417;SDS011;11376;50.932;4.442;2022-12-18T13:18:23;22.07;;;8.07;;
22417;SDS011;11376;50.932;4.442;2022-12-18T13:20:51;17.27;;;7.60;;
22417;SDS011;11376;50.932;4.442;2022-12-18T13:36:41;17.20;;;8.20;;
22417;SDS011;11376;50.932;4.442;2022-12-18T13:41:48;20.17;;;8.73;;
22417;SDS011;11376;50.932;4.442;2022-12-18T13:49:56;23.50;;;9.40;;
22417;SDS011;11376;50.932;4.442;2022-12-18T13:52:22;17.97;;;8.67;;
22417;SDS011;11376;50.932;4.442;2022-12-18T13:54:51;19.03;;;9.00;;
22417;SDS011;11376;50.932;4.442;2022-12-18T13:57:27;21.07;;;8.77;;
22417;SDS011;11376;50.932;4.442;2022-12-18T13:59:55;17.13;;;6.80;;
22417;SDS011;11376;50.932;4.442;2022-12-18T14:02:26;20.83;;;8.67;;
22417;SDS011;11376;50.932;4.442;2022-12-18T14:04:53;19.10;;;9.00;;
22417;SDS011;11376;50.932;4.442;2022-12-18T14:07:20;20.03;;;9.37;;
22417;SDS011;11376;50.932;4.442;2022-12-18T14:09:49;21.13;;;9.30;;
22417;SDS011;11376;50.932;4.442;2022-12-18T14:12:29;24.00;;;9.40;;
22417;SDS011;11376;50.932;4.442;2022-12-18T14:15:31;22.00;;;9.53;;
22417;SDS011;11376;50.932;4.442;2022-12-18T14:20:26;15.60;;;7.13;;
22417;SDS011;11376;50.932;4.442;2022-12-18T14:22:54;20.47;;;9.03;;
22417;SDS011;11376;50.932;4.442;2022-12-18T14:25:23;23.43;;;10.10;;
22417;SDS011;11376;50.932;4.442;2022-12-18T14:28:02;23.37;;;9.87;;
22417;SDS011;11376;50.932;4.442;2022-12-18T14:30:37;26.83;;;10.33;;
22417;SDS011;11376;50.932;4.442;2022-12-18T14:33:05;21.70;;;10.43;;
22417;SDS011;11376;50.932;4.442;2022-12-18T14:35:36;21.90;;;9.43;;
22417;SDS011;11376;50.932;4.442;2022-12-18T14:38:18;25.93;;;10.43;;
22417;SDS011;11376;50.932;4.442;2022-12-18T14:40:54;23.83;;;9.77;;
22417;SDS011;11376;50.932;4.442;2022-12-18T14:43:21;24.07;;;10.43;;
22417;SDS011;11376;50.932;4.442;2022-12-18T14:45:47;25.07;;;10.60;;
22417;SDS011;11376;50.932;4.442;2022-12-18T14:48:18;23.50;;;10.20;;
22417;SDS011;11376;50.932;4.442;2022-12-18T14:51:00;23.93;;;10.70;;
22417;SDS011;11376;50.932;4.442;2022-12-18T14:53:41;23.53;;;10.90;;
22417;SDS011;11376;50.932;4.442;2022-12-18T14:56:25;23.80;;;10.40;;
22417;SDS011;11376;50.932;4.442;2022-12-18T14:58:59;24.87;;;10.93;;
22417;SDS011;11376;50.932;4.442;2022-12-18T15:04:45;23.53;;;10.07;;
22417;SDS011;11376;50.932;4.442;2022-12-18T15:07:15;24.77;;;10.30;;
22417;SDS011;11376;50.932;4.442;2022-12-18T15:10:00;28.63;;;11.77;;
22417;SDS011;11376;50.932;4.442;2022-12-18T15:12:39;31.87;;;11.97;;
22417;SDS011;11376;50.932;4.442;2022-12-18T15:20:59;24.63;;;10.57;;
22417;SDS011;11376;50.932;4.442;2022-12-18T15:23:36;25.97;;;10.73;;
22417;SDS011;11376;50.932;4.442;2022-12-18T15:26:08;25.80;;;10.10;;
22417;SDS011;11376;50.932;4.442;2022-12-18T15:28:37;25.67;;;10.77;;
22417;SDS011;11376;50.932;4.442;2022-12-18T15:33:40;27.20;;;10.63;;
22417;SDS011;11376;50.932;4.442;2022-12-18T15:36:10;27.03;;;10.93;;
22417;SDS011;11376;50.932;4.442;2022-12-18T15:38:40;24.33;;;10.70;;
22417;SDS011;11376;50.932;4.442;2022-12-18T15:41:11;27.70;;;10.97;;
22417;SDS011;11376;50.932;4.442;2022-12-18T15:43:39;26.10;;;11.40;;
22417;SDS011;11376;50.932;4.442;2022-12-18T15:46:17;25.87;;;10.83;;
22417;SDS011;11376;50.932;4.442;2022-12-18T15:48:48;28.13;;;11.27;;
22417;SDS011;11376;50.932;4.442;2022-12-18T15:51:17;27.33;;;11.57;;
22417;SDS011;11376;50.932;4.442;2022-12-18T15:53:45;27.80;;;11.10;;
22417;SDS011;11376;50.932;4.442;2022-12-18T15:56:13;32.67;;;12.33;;
22417;SDS011;11376;50.932;4.442;2022-12-18T15:58:58;28.80;;;12.13;;
22417;SDS011;11376;50.932;4.442;2022-12-18T16:01:25;30.07;;;11.97;;
22417;SDS011;11376;50.932;4.442;2022-12-18T16:03:53;27.30;;;11.57;;
22417;SDS011;11376;50.932;4.442;2022-12-18T16:06:19;30.77;;;12.33;;
22417;SDS011;11376;50.932;4.442;2022-12-18T16:08:45;33.80;;;13.93;;
22417;SDS011;11376;50.932;4.442;2022-12-18T16:11:16;30.17;;;12.37;;
22417;SDS011;11376;50.932;4.442;2022-12-18T16:16:48;37.47;;;14.60;;
22417;SDS011;11376;50.932;4.442;2022-12-18T16:19:16;45.03;;;19.20;;
22417;SDS011;11376;50.932;4.442;2022-12-18T16:21:43;29.90;;;12.17;;
22417;SDS011;11376;50.932;4.442;2022-12-18T16:24:12;31.63;;;13.50;;
22417;SDS011;11376;50.932;4.442;2022-12-18T16:26:41;30.47;;;11.83;;
22417;SDS011;11376;50.932;4.442;2022-12-18T16:29:08;29.83;;;12.30;;
22417;SDS011;11376;50.932;4.442;2022-12-18T16:31:34;29.87;;;11.87;;
22417;SDS011;11376;50.932;4.442;2022-12-18T16:34:12;28.43;;;11.73;;
22417;SDS011;11376;50.932;4.442;2022-12-18T16:36:50;29.27;;;11.20;;
22417;SDS011;11376;50.932;4.442;2022-12-18T16:39:17;29.90;;;13.93;;
22417;SDS011;11376;50.932;4.442;2022-12-18T16:41:42;31.17;;;12.60;;
22417;SDS011;11376;50.932;4.442;2022-12-18T16:44:08;25.30;;;11.23;;
22417;SDS011;11376;50.932;4.442;2022-12-18T16:46:35;35.70;;;13.63;;
22417;SDS011;11376;50.932;4.442;2022-12-18T16:49:01;28.03;;;10.93;;
22417;SDS011;11376;50.932;4.442;2022-12-18T16:51:27;29.83;;;13.47;;
22417;SDS011;11376;50.932;4.442;2022-12-18T16:53:53;25.73;;;11.40;;
22417;SDS011;11376;50.932;4.442;2022-12-18T16:56:19;31.30;;;12.77;;